createdAt,value
2023-05-19T00:01:21.551Z,17.10
2023-05-19T00:04:02.509Z,17.10
2023-05-19T00:06:31.970Z,17.10
2023-05-19T00:09:08.160Z,17.60
2023-05-19T00:11:36.882Z,17.10
2023-05-19T00:14:09.390Z,17.10
2023-05-19T00:16:38.125Z,17.10
2023-05-19T00:19:06.704Z,17.10
2023-05-19T00:21:33.904Z,17.10
2023-05-19T00:24:01.298Z,17.20
2023-05-19T00:26:28.454Z,17.20
2023-05-19T00:28:55.645Z,17.20
2023-05-19T00:31:22.814Z,17.20
2023-05-19T00:33:50.094Z,17.20
2023-05-19T00:36:17.374Z,17.60
2023-05-19T00:38:44.473Z,16.70
2023-05-19T00:41:11.850Z,17.20
2023-05-19T00:43:38.990Z,17.20
2023-05-19T00:46:07.404Z,17.20
2023-05-19T00:48:34.616Z,17.10
2023-05-19T00:51:06.266Z,17.10
2023-05-19T00:53:34.703Z,17.10
2023-05-19T00:56:02.737Z,17.10
2023-05-19T00:58:32.442Z,17.20
2023-05-19T01:01:03.509Z,17.20
2023-05-19T01:03:36.080Z,17.20
2023-05-19T01:06:07.037Z,17.20
2023-05-19T01:08:36.200Z,17.30
2023-05-19T01:11:07.440Z,17.20
2023-05-19T01:13:39.780Z,17.20
2023-05-19T01:16:22.217Z,17.20
2023-05-19T01:19:12.526Z,17.30
2023-05-19T01:22:03.094Z,17.20
2023-05-19T01:25:13.220Z,17.30
2023-05-19T01:27:59.224Z,17.20
2023-05-19T01:30:36.760Z,17.10
2023-05-19T01:33:07.699Z,17.10
2023-05-19T01:35:37.132Z,17.20
2023-05-19T01:38:07.447Z,17.10
2023-05-19T01:40:36.057Z,17.10
2023-05-19T01:43:04.286Z,17.10
2023-05-19T01:45:33.593Z,17.30
2023-05-19T01:48:03.201Z,17.30
2023-05-19T01:50:31.094Z,17.30
2023-05-19T01:52:59.158Z,17.40
2023-05-19T01:55:26.649Z,17.30
2023-05-19T01:58:17.206Z,17.30
2023-05-19T02:01:02.491Z,17.20
2023-05-19T02:04:05.912Z,17.30
2023-05-19T02:06:51.517Z,17.30
2023-05-19T02:10:04.414Z,17.30
2023-05-19T02:12:40.612Z,17.20
2023-05-19T02:15:10.931Z,17.20
2023-05-19T02:17:47.553Z,17.20
2023-05-19T02:20:18.537Z,17.20
2023-05-19T02:22:45.912Z,17.10
2023-05-19T02:25:13.266Z,17.10
2023-05-19T02:27:41.035Z,17.10
2023-05-19T02:30:09.706Z,17.10
2023-05-19T02:32:37.184Z,17.10
2023-05-19T02:35:04.815Z,17.10
2023-05-19T02:37:32.489Z,17.20
2023-05-19T02:39:59.717Z,17.20
2023-05-19T02:42:26.805Z,17.20
2023-05-19T02:44:55.328Z,17.20
2023-05-19T02:47:22.785Z,17.20
2023-05-19T02:49:50.102Z,17.20
2023-05-19T02:52:17.324Z,17.20
2023-05-19T02:54:44.619Z,17.20
2023-05-19T02:57:11.785Z,17.20
2023-05-19T02:59:38.880Z,17.20
2023-05-19T03:02:06.135Z,17.20
2023-05-19T03:04:33.353Z,17.20
2023-05-19T03:07:00.453Z,17.20
2023-05-19T03:09:27.544Z,17.20
2023-05-19T03:11:54.694Z,17.20
2023-05-19T03:14:23.730Z,18.20
2023-05-19T03:16:51.332Z,17.30
2023-05-19T03:19:18.685Z,17.20
2023-05-19T03:21:46.269Z,17.30
2023-05-19T03:24:13.697Z,17.20
2023-05-19T03:26:42.001Z,16.50
2023-05-19T03:29:09.142Z,17.70
2023-05-19T03:31:36.268Z,17.30
2023-05-19T03:34:03.457Z,16.90
2023-05-19T03:36:32.155Z,17.30
2023-05-19T03:38:59.476Z,17.30
2023-05-19T03:41:26.592Z,17.30
2023-05-19T03:43:53.707Z,17.30
2023-05-19T03:46:21.143Z,17.30
2023-05-19T03:48:48.368Z,17.30
2023-05-19T03:51:15.509Z,17.30
2023-05-19T03:53:42.614Z,17.70
2023-05-19T03:56:13.523Z,17.30
2023-05-19T03:58:44.260Z,17.70
2023-05-19T04:01:11.559Z,17.30
2023-05-19T04:03:38.732Z,17.30
2023-05-19T04:06:06.131Z,17.30
2023-05-19T04:08:33.249Z,17.30
2023-05-19T04:11:00.440Z,17.30
2023-05-19T04:13:27.557Z,17.10
2023-05-19T04:15:54.715Z,17.20
2023-05-19T04:18:21.876Z,17.20
2023-05-19T04:20:49.050Z,17.20
2023-05-19T04:23:16.187Z,17.20
2023-05-19T04:25:43.409Z,17.20
2023-05-19T04:28:10.518Z,17.20
2023-05-19T04:30:38.548Z,17.20
2023-05-19T04:33:05.855Z,17.20
2023-05-19T04:35:33.082Z,17.20
2023-05-19T04:38:01.585Z,17.20
2023-05-19T04:40:31.097Z,17.30
2023-05-19T04:42:58.961Z,17.30
2023-05-19T04:45:26.095Z,17.30
2023-05-19T04:47:57.801Z,17.30
2023-05-19T04:50:25.265Z,17.30
2023-05-19T04:52:52.407Z,17.30
2023-05-19T04:55:19.571Z,17.30
2023-05-19T04:57:46.901Z,17.30
2023-05-19T05:00:14.660Z,17.30
2023-05-19T05:02:42.832Z,17.30
2023-05-19T05:05:10.125Z,17.30
2023-05-19T05:07:37.274Z,17.50
2023-05-19T05:10:05.087Z,17.30
2023-05-19T05:12:32.969Z,17.30
2023-05-19T05:15:00.553Z,17.20
2023-05-19T05:17:28.249Z,17.20
2023-05-19T05:19:55.710Z,17.20
2023-05-19T05:22:23.175Z,17.20
2023-05-19T05:24:50.798Z,17.10
2023-05-19T05:27:17.994Z,17.20
2023-05-19T05:29:45.171Z,17.20
2023-05-19T05:32:12.378Z,17.30
2023-05-19T05:34:40.945Z,17.30
2023-05-19T05:37:08.109Z,17.30
2023-05-19T05:39:35.519Z,17.30
2023-05-19T05:42:02.687Z,17.30
2023-05-19T05:44:30.412Z,17.30
2023-05-19T05:46:57.858Z,17.30
2023-05-19T05:49:25.182Z,17.30
2023-05-19T05:52:05.172Z,17.30
2023-05-19T05:54:33.390Z,17.30
2023-05-19T05:57:02.409Z,17.30
2023-05-19T05:59:29.533Z,17.30
2023-05-19T06:01:58.414Z,17.20
2023-05-19T06:04:25.811Z,17.20
2023-05-19T06:06:53.329Z,17.20
2023-05-19T06:09:20.428Z,17.50
2023-05-19T06:11:47.534Z,17.30
2023-05-19T06:14:14.623Z,16.30
2023-05-19T06:16:41.804Z,17.30
2023-05-19T06:19:09.021Z,17.30
2023-05-19T06:21:36.172Z,17.30
2023-05-19T06:24:03.381Z,17.30
2023-05-19T06:26:30.485Z,17.30
2023-05-19T06:28:57.585Z,17.30
2023-05-19T06:31:26.440Z,17.30
2023-05-19T06:33:53.728Z,17.20
2023-05-19T06:36:21.125Z,17.00
2023-05-19T06:38:48.372Z,16.70
2023-05-19T06:41:15.522Z,16.70
2023-05-19T06:43:42.968Z,16.60
2023-05-19T06:46:10.695Z,17.00
2023-05-19T06:48:37.805Z,16.60
2023-05-19T06:51:05.310Z,16.70
2023-05-19T06:53:33.930Z,16.80
2023-05-19T06:56:01.038Z,16.90
2023-05-19T06:58:28.464Z,17.00
2023-05-19T07:00:55.749Z,17.10
2023-05-19T07:03:22.964Z,17.10
2023-05-19T07:05:50.361Z,17.20
2023-05-19T07:08:17.467Z,17.20
2023-05-19T07:10:44.539Z,17.30
2023-05-19T07:13:11.635Z,17.30
2023-05-19T07:15:38.778Z,17.30
2023-05-19T07:18:06.070Z,17.30
2023-05-19T07:20:33.465Z,17.30
2023-05-19T07:23:02.581Z,17.60
2023-05-19T07:25:30.525Z,17.40
2023-05-19T07:27:57.774Z,17.40
2023-05-19T07:30:27.477Z,17.30
2023-05-19T07:32:54.712Z,17.10
2023-05-19T07:35:25.271Z,17.00
2023-05-19T07:37:52.645Z,16.90
2023-05-19T07:40:19.807Z,16.90
2023-05-19T07:42:47.992Z,16.90
2023-05-19T07:45:15.134Z,16.80
2023-05-19T07:47:42.295Z,16.90
2023-05-19T07:50:09.590Z,16.80
2023-05-19T07:52:36.708Z,16.80
2023-05-19T07:55:04.010Z,16.80
2023-05-19T07:57:32.308Z,16.80
2023-05-19T07:59:59.473Z,16.80
2023-05-19T08:02:26.637Z,16.80
2023-05-19T08:04:54.488Z,16.90
2023-05-19T08:07:21.766Z,16.80
2023-05-19T08:09:48.887Z,16.50
2023-05-19T08:12:15.965Z,16.90
2023-05-19T08:14:43.093Z,16.90
2023-05-19T08:17:10.196Z,16.80
2023-05-19T08:19:38.051Z,16.90
2023-05-19T08:22:05.284Z,16.90
2023-05-19T08:24:33.779Z,16.90
2023-05-19T08:27:00.981Z,17.20
2023-05-19T08:29:28.124Z,16.90
2023-05-19T08:31:55.436Z,16.90
2023-05-19T08:34:22.841Z,16.90
2023-05-19T08:36:50.293Z,16.90
2023-05-19T08:39:19.542Z,16.90
2023-05-19T08:41:46.646Z,16.90
2023-05-19T08:44:13.794Z,16.90
2023-05-19T08:46:41.176Z,16.90
2023-05-19T08:49:12.949Z,16.90
2023-05-19T08:52:02.362Z,16.90
2023-05-19T08:54:38.179Z,16.90
2023-05-19T08:57:06.131Z,16.90
2023-05-19T08:59:34.661Z,16.80
2023-05-19T09:02:02.736Z,16.60
2023-05-19T09:04:30.613Z,16.50
2023-05-19T09:06:58.869Z,16.50
2023-05-19T09:09:26.062Z,16.50
2023-05-19T09:11:53.261Z,16.50
2023-05-19T09:14:20.532Z,16.50
2023-05-19T09:16:50.875Z,16.50
2023-05-19T09:19:18.545Z,16.50
2023-05-19T09:21:46.239Z,16.40
2023-05-19T09:24:13.385Z,16.40
2023-05-19T09:26:42.436Z,16.40
2023-05-19T09:29:17.255Z,16.40
2023-05-19T09:31:50.227Z,16.40
2023-05-19T09:34:18.429Z,16.50
2023-05-19T09:36:49.356Z,16.50
2023-05-19T09:39:17.840Z,16.40
2023-05-19T09:41:46.030Z,17.10
2023-05-19T09:44:23.476Z,16.40
2023-05-19T09:46:51.822Z,16.50
2023-05-19T09:49:20.912Z,16.70
2023-05-19T09:51:55.691Z,16.80
2023-05-19T09:54:24.065Z,17.00
2023-05-19T09:57:03.530Z,17.10
2023-05-19T09:59:33.424Z,17.20
2023-05-19T10:02:02.312Z,17.30
2023-05-19T10:04:31.032Z,17.30
2023-05-19T10:07:05.318Z,17.30
2023-05-19T10:09:33.987Z,17.30
2023-05-19T10:12:02.356Z,17.30
2023-05-19T10:14:29.970Z,17.40
2023-05-19T10:16:58.727Z,17.40
2023-05-19T10:19:27.667Z,17.40
2023-05-19T10:21:55.746Z,17.40
2023-05-19T10:24:23.109Z,17.40
2023-05-19T10:27:01.152Z,17.40
2023-05-19T10:29:31.793Z,17.40
2023-05-19T10:32:04.430Z,17.40
2023-05-19T10:34:57.979Z,17.40
2023-05-19T10:37:40.709Z,17.30
2023-05-19T10:40:36.844Z,17.40
2023-05-19T10:43:19.101Z,17.40
2023-05-19T10:45:51.808Z,17.40
2023-05-19T10:48:24.896Z,17.40
2023-05-19T10:50:56.368Z,17.40
2023-05-19T10:53:31.139Z,17.40
2023-05-19T10:56:03.628Z,17.40
2023-05-19T10:58:40.733Z,17.30
2023-05-19T11:01:22.097Z,17.40
2023-05-19T11:03:54.217Z,17.40
2023-05-19T11:06:38.603Z,17.50
2023-05-19T11:09:08.875Z,17.40
2023-05-19T11:11:52.568Z,17.40
2023-05-19T11:14:28.067Z,17.40
2023-05-19T11:16:59.686Z,17.40
2023-05-19T11:19:35.155Z,17.40
2023-05-19T11:22:13.563Z,17.40
2023-05-19T11:24:45.142Z,17.60
2023-05-19T11:27:20.660Z,17.50
2023-05-19T11:29:48.662Z,17.40
2023-05-19T11:32:16.317Z,17.60
2023-05-19T11:34:44.660Z,17.50
2023-05-19T11:37:12.079Z,17.40
2023-05-19T11:39:40.566Z,17.10
2023-05-19T11:42:11.126Z,18.00
2023-05-19T11:44:38.534Z,17.40
2023-05-19T11:47:06.141Z,17.40
2023-05-19T11:49:33.382Z,17.30
2023-05-19T11:52:02.213Z,17.40
2023-05-19T11:54:33.626Z,17.30
2023-05-19T11:57:02.818Z,17.30
2023-05-19T11:59:35.778Z,17.30
2023-05-19T12:02:17.874Z,17.50
2023-05-19T12:04:45.797Z,17.40
2023-05-19T12:07:13.717Z,17.40
2023-05-19T12:09:40.887Z,17.50
2023-05-19T12:12:08.207Z,17.40
2023-05-19T12:14:35.876Z,17.40
2023-05-19T12:17:13.838Z,17.40
2023-05-19T12:19:43.965Z,17.40
2023-05-19T12:22:11.736Z,17.40
2023-05-19T12:24:40.129Z,17.50
2023-05-19T12:27:20.994Z,17.50
2023-05-19T12:29:52.262Z,17.40
2023-05-19T12:32:26.437Z,17.40
2023-05-19T12:34:56.378Z,17.50
2023-05-19T12:37:27.608Z,17.50
2023-05-19T12:39:56.141Z,17.50
2023-05-19T12:42:24.014Z,17.50
2023-05-19T12:44:52.482Z,17.60
2023-05-19T12:47:20.273Z,17.50
2023-05-19T12:49:57.051Z,17.50
2023-05-19T12:52:24.419Z,17.40
2023-05-19T12:55:02.119Z,17.60
2023-05-19T12:57:32.359Z,17.30
2023-05-19T13:00:12.877Z,17.50
2023-05-19T13:03:06.015Z,17.50
2023-05-19T13:05:39.151Z,17.50
2023-05-19T13:08:08.196Z,17.60
2023-05-19T13:10:37.123Z,17.50
2023-05-19T13:13:05.210Z,17.50
2023-05-19T13:15:37.624Z,17.50
2023-05-19T13:18:10.956Z,17.60
2023-05-19T13:20:40.359Z,17.50
2023-05-19T13:23:10.448Z,17.50
2023-05-19T13:25:38.095Z,17.60
2023-05-19T13:28:05.532Z,17.50
2023-05-19T13:30:34.522Z,17.50
2023-05-19T13:33:02.524Z,17.50
2023-05-19T13:35:30.680Z,17.50
2023-05-19T13:37:57.892Z,17.20
2023-05-19T13:40:25.908Z,17.50
2023-05-19T13:42:53.071Z,17.50
2023-05-19T13:45:20.278Z,17.60
2023-05-19T13:47:47.464Z,17.60
2023-05-19T13:50:14.640Z,17.60
2023-05-19T13:52:41.957Z,17.60
2023-05-19T13:55:09.361Z,17.60
2023-05-19T13:57:36.909Z,17.60
2023-05-19T14:00:05.737Z,17.60
2023-05-19T14:02:33.781Z,17.60
2023-05-19T14:05:00.984Z,17.60
2023-05-19T14:07:28.252Z,17.60
2023-05-19T14:09:55.371Z,17.60
2023-05-19T14:12:25.585Z,17.60
2023-05-19T14:14:58.819Z,17.60
2023-05-19T14:17:28.142Z,17.60
2023-05-19T14:19:55.690Z,17.60
2023-05-19T14:22:22.842Z,17.60
2023-05-19T14:24:49.946Z,17.70
2023-05-19T14:27:17.070Z,17.60
2023-05-19T14:29:44.224Z,17.70
2023-05-19T14:32:11.399Z,17.70
2023-05-19T14:34:38.498Z,17.70
2023-05-19T14:37:05.658Z,17.70
2023-05-19T14:39:32.807Z,17.70
2023-05-19T14:41:59.934Z,17.70
2023-05-19T14:44:31.662Z,17.70
2023-05-19T14:47:01.037Z,17.70
2023-05-19T14:49:28.268Z,17.70
2023-05-19T14:51:57.188Z,17.70
2023-05-19T14:54:24.320Z,17.70
2023-05-19T14:56:51.481Z,17.70
2023-05-19T14:59:18.576Z,17.70
2023-05-19T15:01:45.864Z,17.70
2023-05-19T15:04:13.254Z,17.70
2023-05-19T15:06:40.583Z,17.70
2023-05-19T15:09:08.051Z,17.70
2023-05-19T15:11:35.182Z,17.70
2023-05-19T15:14:02.282Z,17.70
2023-05-19T15:16:30.062Z,17.90
2023-05-19T15:18:57.290Z,17.80
2023-05-19T15:21:24.460Z,17.70
2023-05-19T15:23:51.609Z,17.70
2023-05-19T15:26:18.732Z,17.70
2023-05-19T15:28:45.863Z,17.70
2023-05-19T15:31:13.101Z,17.70
2023-05-19T15:33:40.350Z,18.30
2023-05-19T15:36:07.570Z,17.70
2023-05-19T15:38:37.468Z,17.70
2023-05-19T15:41:08.432Z,17.70
2023-05-19T15:43:35.780Z,17.70
2023-05-19T15:46:04.847Z,17.50
2023-05-19T15:48:32.340Z,17.70
2023-05-19T15:50:59.813Z,17.70
2023-05-19T15:53:27.035Z,17.70
2023-05-19T15:55:54.193Z,17.70
2023-05-19T15:58:21.314Z,17.70
2023-05-19T16:00:48.542Z,17.80
2023-05-19T16:03:15.814Z,17.70
2023-05-19T16:05:43.027Z,17.80
2023-05-19T16:08:10.276Z,17.70
2023-05-19T16:10:37.375Z,17.70
2023-05-19T16:13:04.558Z,17.80
2023-05-19T16:15:31.708Z,17.80
2023-05-19T16:17:58.896Z,17.80
2023-05-19T16:20:28.014Z,17.80
2023-05-19T16:22:55.753Z,17.80
2023-05-19T16:25:23.545Z,17.90
2023-05-19T16:27:51.240Z,17.70
2023-05-19T16:30:18.615Z,17.80
2023-05-19T16:32:45.787Z,17.80
2023-05-19T16:35:12.919Z,17.80
2023-05-19T16:37:40.315Z,17.80
2023-05-19T16:40:08.112Z,17.90
2023-05-19T16:42:35.300Z,17.80
2023-05-19T16:45:02.541Z,17.80
2023-05-19T16:47:29.758Z,17.80
2023-05-19T16:49:56.868Z,18.00
2023-05-19T16:52:24.262Z,17.80
2023-05-19T16:54:51.348Z,17.90
2023-05-19T16:57:18.522Z,17.80
2023-05-19T16:59:45.736Z,17.80
2023-05-19T17:02:12.953Z,17.80
2023-05-19T17:04:40.163Z,17.80
2023-05-19T17:07:07.250Z,18.00
2023-05-19T17:09:34.455Z,17.80
2023-05-19T17:12:01.562Z,17.80
2023-05-19T17:14:28.742Z,17.80
2023-05-19T17:16:55.905Z,17.80
2023-05-19T17:19:23.175Z,17.80
2023-05-19T17:21:50.584Z,17.80
2023-05-19T17:24:17.689Z,17.80
2023-05-19T17:26:44.836Z,17.90
2023-05-19T17:29:14.802Z,17.80
2023-05-19T17:31:42.222Z,17.80
2023-05-19T17:34:09.349Z,17.70
2023-05-19T17:36:36.453Z,17.70
2023-05-19T17:39:03.728Z,17.60
2023-05-19T17:41:30.922Z,17.60
2023-05-19T17:43:58.058Z,17.50
2023-05-19T17:46:25.584Z,17.50
2023-05-19T17:48:52.782Z,17.30
2023-05-19T17:51:21.057Z,18.20
2023-05-19T17:53:49.413Z,17.40
2023-05-19T17:56:19.451Z,17.40
2023-05-19T17:58:47.007Z,17.50
2023-05-19T18:01:14.860Z,17.40
2023-05-19T18:03:48.909Z,17.40
2023-05-19T18:06:19.608Z,17.40
2023-05-19T18:08:50.326Z,17.30
2023-05-19T18:11:18.323Z,17.40
2023-05-19T18:13:45.636Z,17.40
2023-05-19T18:16:13.091Z,17.40
2023-05-19T18:18:43.452Z,17.30
2023-05-19T18:21:17.545Z,17.30
2023-05-19T18:23:45.513Z,17.30
2023-05-19T18:26:15.855Z,17.30
2023-05-19T18:28:43.416Z,17.20
2023-05-19T18:31:15.642Z,17.30
2023-05-19T18:33:44.180Z,17.30
2023-05-19T18:36:11.311Z,17.30
2023-05-19T18:38:38.397Z,17.30
2023-05-19T18:41:09.218Z,17.30
2023-05-19T18:43:36.343Z,17.30
2023-05-19T18:46:03.547Z,17.10
2023-05-19T18:48:31.940Z,17.20
2023-05-19T18:50:59.683Z,17.60
2023-05-19T18:53:26.846Z,17.30
2023-05-19T18:55:54.032Z,17.30
2023-05-19T18:58:21.520Z,17.30
2023-05-19T19:00:48.699Z,17.30
2023-05-19T19:03:15.873Z,17.30
2023-05-19T19:05:44.254Z,17.30
2023-05-19T19:08:11.459Z,17.30
2023-05-19T19:10:40.595Z,17.20
2023-05-19T19:13:07.772Z,17.20
2023-05-19T19:15:34.913Z,17.30
2023-05-19T19:18:02.179Z,16.90
2023-05-19T19:20:29.396Z,17.20
2023-05-19T19:22:58.591Z,17.20
2023-05-19T19:25:25.702Z,17.20
2023-05-19T19:27:52.798Z,17.40
2023-05-19T19:30:19.932Z,17.20
2023-05-19T19:32:47.078Z,17.20
2023-05-19T19:35:15.814Z,17.20
2023-05-19T19:37:42.921Z,17.20
2023-05-19T19:40:10.514Z,17.20
2023-05-19T19:42:38.408Z,17.20
2023-05-19T19:45:06.676Z,17.20
2023-05-19T19:47:33.882Z,17.20
2023-05-19T19:50:02.563Z,17.20
2023-05-19T19:52:29.669Z,17.20
2023-05-19T19:54:57.266Z,17.20
2023-05-19T19:57:24.647Z,17.20
2023-05-19T19:59:55.058Z,17.20
2023-05-19T20:02:22.526Z,17.20
2023-05-19T20:04:49.789Z,17.10
2023-05-19T20:07:20.783Z,16.90
2023-05-19T20:09:49.548Z,17.20
2023-05-19T20:12:16.692Z,17.80
2023-05-19T20:14:43.819Z,17.20
2023-05-19T20:17:10.936Z,17.20
2023-05-19T20:19:38.044Z,17.20
2023-05-19T20:22:05.469Z,17.30
2023-05-19T20:24:32.579Z,17.20
2023-05-19T20:26:59.705Z,17.20
2023-05-19T20:29:27.144Z,17.20
2023-05-19T20:31:55.567Z,17.10
2023-05-19T20:34:24.441Z,17.10
2023-05-19T20:36:51.611Z,17.10
2023-05-19T20:39:18.727Z,17.10
2023-05-19T20:41:45.964Z,16.80
2023-05-19T20:44:13.199Z,17.00
2023-05-19T20:46:40.401Z,17.00
2023-05-19T20:49:07.530Z,17.10
2023-05-19T20:51:34.688Z,16.90
2023-05-19T20:54:01.785Z,17.00
2023-05-19T20:56:28.915Z,17.10
2023-05-19T20:58:56.014Z,17.00
2023-05-19T21:01:25.204Z,17.00
2023-05-19T21:03:52.575Z,16.90
2023-05-19T21:06:19.750Z,16.90
2023-05-19T21:08:46.861Z,16.30
2023-05-19T21:11:14.003Z,17.20
2023-05-19T21:13:41.132Z,16.90
2023-05-19T21:16:08.322Z,16.50
2023-05-19T21:18:35.456Z,16.90
2023-05-19T21:21:04.018Z,16.90
2023-05-19T21:23:31.230Z,16.90
2023-05-19T21:25:59.548Z,16.80
2023-05-19T21:28:26.689Z,16.80
2023-05-19T21:30:53.828Z,16.80
2023-05-19T21:33:20.985Z,16.80
2023-05-19T21:35:48.136Z,16.80
2023-05-19T21:38:23.536Z,16.80
2023-05-19T21:40:52.745Z,16.80
2023-05-19T21:43:19.913Z,16.80
2023-05-19T21:45:47.058Z,16.80
2023-05-19T21:48:14.218Z,16.70
2023-05-19T21:50:41.331Z,17.60
2023-05-19T21:53:08.527Z,16.60
2023-05-19T21:55:35.662Z,16.60
2023-05-19T21:58:03.019Z,16.60
2023-05-19T22:00:30.271Z,16.70
2023-05-19T22:02:57.450Z,16.70
2023-05-19T22:05:24.603Z,16.70
2023-05-19T22:07:51.726Z,16.70
2023-05-19T22:10:18.957Z,16.80
2023-05-19T22:12:46.148Z,16.80
2023-05-19T22:15:14.187Z,16.80
2023-05-19T22:17:42.113Z,16.80
2023-05-19T22:20:09.658Z,16.80
2023-05-19T22:22:36.756Z,16.80
2023-05-19T22:25:04.632Z,16.80
2023-05-19T22:27:31.915Z,16.80
2023-05-19T22:30:01.945Z,16.80
2023-05-19T22:32:30.318Z,16.70
2023-05-19T22:34:57.443Z,16.80
2023-05-19T22:37:24.583Z,16.80
2023-05-19T22:39:51.748Z,16.50
2023-05-19T22:42:18.911Z,17.00
2023-05-19T22:44:46.141Z,17.10
2023-05-19T22:47:13.883Z,16.90
2023-05-19T22:49:42.191Z,16.90
2023-05-19T22:52:10.899Z,17.40
2023-05-19T22:54:38.360Z,17.80
2023-05-19T22:57:05.808Z,17.00
2023-05-19T22:59:33.019Z,17.00
2023-05-19T23:02:00.166Z,17.10
2023-05-19T23:04:27.414Z,17.20
2023-05-19T23:06:54.669Z,17.30
2023-05-19T23:09:21.908Z,17.80
2023-05-19T23:11:49.961Z,17.70
2023-05-19T23:14:18.417Z,17.40
2023-05-19T23:16:46.006Z,17.40
2023-05-19T23:19:13.281Z,17.50
2023-05-19T23:21:40.965Z,17.50
2023-05-19T23:24:08.057Z,17.60
2023-05-19T23:26:35.363Z,17.60
2023-05-19T23:29:02.457Z,17.60
2023-05-19T23:31:29.604Z,17.60
2023-05-19T23:33:56.797Z,17.60
2023-05-19T23:36:23.938Z,17.60
2023-05-19T23:38:51.064Z,17.70
2023-05-19T23:41:18.159Z,17.60
2023-05-19T23:43:45.301Z,17.60
2023-05-19T23:46:12.514Z,17.60
2023-05-19T23:48:39.853Z,17.90
2023-05-19T23:51:07.008Z,17.60
2023-05-19T23:53:34.088Z,17.60
2023-05-19T23:56:01.280Z,17.50
2023-05-19T23:58:28.395Z,17.50
